createdAt,value
2019-05-26T00:00:14.267Z,27.20
2019-05-26T00:02:46.318Z,27.48
2019-05-26T00:05:18.235Z,28.23
2019-05-26T00:07:50.323Z,27.87
2019-05-26T00:10:22.335Z,29.87
2019-05-26T00:12:54.293Z,30.50
2019-05-26T00:15:26.390Z,30.05
2019-05-26T00:17:58.435Z,29.05
2019-05-26T00:20:30.479Z,30.15
2019-05-26T00:23:03.655Z,30.00
2019-05-26T00:25:35.765Z,27.67
2019-05-26T00:28:07.811Z,27.32
2019-05-26T00:30:39.816Z,28.17
2019-05-26T00:33:12.845Z,27.67
2019-05-26T00:35:44.919Z,28.52
2019-05-26T00:38:17.047Z,25.97
2019-05-26T00:40:49.124Z,26.97
2019-05-26T00:43:21.107Z,27.77
2019-05-26T00:45:52.937Z,30.32
2019-05-26T00:48:24.950Z,27.05
2019-05-26T00:50:56.873Z,27.90
2019-05-26T00:53:28.852Z,28.95
2019-05-26T00:56:01.049Z,28.25
2019-05-26T00:58:33.202Z,27.10
2019-05-26T01:01:05.311Z,26.40
2019-05-26T01:03:37.346Z,26.80
2019-05-26T01:06:09.492Z,25.02
2019-05-26T01:08:41.548Z,26.87
2019-05-26T01:11:13.336Z,26.02
2019-05-26T01:13:45.301Z,24.57
2019-05-26T01:16:17.307Z,26.17
2019-05-26T01:18:49.219Z,28.50
2019-05-26T01:21:21.291Z,29.27
2019-05-26T01:23:53.235Z,33.60
2019-05-26T01:26:25.319Z,34.60
2019-05-26T01:28:57.280Z,36.60
2019-05-26T01:31:29.312Z,34.25
2019-05-26T01:34:01.362Z,33.00
2019-05-26T01:36:33.452Z,31.65
2019-05-26T01:39:07.480Z,29.07
2019-05-26T01:41:39.459Z,27.05
2019-05-26T01:44:11.243Z,26.80
2019-05-26T01:46:43.101Z,24.47
2019-05-26T01:49:14.971Z,24.15
2019-05-26T01:51:47.042Z,22.90
2019-05-26T01:54:18.827Z,24.63
2019-05-26T01:56:50.817Z,26.35
2019-05-26T01:59:22.800Z,25.48
2019-05-26T02:01:58.666Z,24.25
2019-05-26T02:04:29.464Z,26.10
2019-05-26T02:07:01.646Z,25.57
2019-05-26T02:09:34.738Z,22.48
2019-05-26T02:12:06.798Z,19.55
2019-05-26T02:14:38.660Z,20.88
2019-05-26T02:17:10.801Z,19.73
2019-05-26T02:19:42.719Z,21.50
2019-05-26T02:22:14.829Z,21.62
2019-05-26T02:24:46.776Z,22.35
2019-05-26T02:27:18.657Z,21.05
2019-05-26T02:29:50.622Z,21.20
2019-05-26T02:32:22.594Z,20.43
2019-05-26T02:34:54.709Z,21.82
2019-05-26T02:37:26.663Z,22.60
2019-05-26T02:39:59.562Z,24.32
2019-05-26T02:42:31.611Z,24.20
2019-05-26T02:45:04.857Z,26.23
2019-05-26T02:47:36.700Z,30.08
2019-05-26T02:50:08.674Z,31.73
2019-05-26T02:52:40.665Z,32.42
2019-05-26T02:55:12.656Z,34.27
2019-05-26T02:57:44.715Z,37.10
2019-05-26T03:00:20.751Z,36.70
2019-05-26T03:02:52.605Z,38.20
2019-05-26T03:05:24.525Z,38.08
2019-05-26T03:07:56.725Z,35.48
2019-05-26T03:10:28.724Z,35.05
2019-05-26T03:13:00.834Z,37.75
2019-05-26T03:15:34.483Z,41.83
2019-05-26T03:18:07.038Z,43.17
2019-05-26T03:20:40.197Z,41.63
2019-05-26T03:23:12.249Z,36.58
2019-05-26T03:25:44.134Z,35.98
2019-05-26T03:28:16.057Z,34.55
2019-05-26T03:30:48.134Z,36.58
2019-05-26T03:33:19.981Z,33.15
2019-05-26T03:35:51.896Z,30.95
2019-05-26T03:38:23.899Z,34.10
2019-05-26T03:40:55.897Z,34.03
2019-05-26T03:43:27.950Z,36.28
2019-05-26T03:46:12.044Z,32.75
2019-05-26T03:48:44.057Z,32.42
2019-05-26T03:51:16.025Z,32.17
2019-05-26T03:53:48.119Z,31.73
2019-05-26T03:56:20.179Z,33.83
2019-05-26T03:58:52.093Z,35.60
2019-05-26T04:01:23.952Z,34.80
2019-05-26T04:03:55.909Z,32.23
2019-05-26T04:06:27.787Z,30.88
2019-05-26T04:08:59.724Z,29.92
2019-05-26T04:11:31.795Z,29.35
2019-05-26T04:14:04.073Z,25.05
2019-05-26T04:16:36.218Z,30.25
2019-05-26T04:19:08.233Z,37.13
2019-05-26T04:21:40.067Z,33.73
2019-05-26T04:24:12.073Z,33.95
2019-05-26T04:26:44.109Z,34.65
2019-05-26T04:29:16.219Z,35.52
2019-05-26T04:31:48.114Z,35.95
2019-05-26T04:34:20.127Z,34.83
2019-05-26T04:36:52.104Z,28.70
2019-05-26T04:39:24.182Z,26.37
2019-05-26T04:41:56.066Z,25.12
2019-05-26T04:44:28.114Z,25.95
2019-05-26T04:47:00.050Z,21.60
2019-05-26T04:49:37.004Z,23.30
2019-05-26T04:52:06.103Z,24.43
2019-05-26T04:54:37.989Z,27.80
2019-05-26T04:57:09.862Z,27.05
2019-05-26T04:59:41.694Z,30.70
2019-05-26T05:02:13.559Z,32.67
2019-05-26T05:04:45.495Z,30.68
2019-05-26T05:07:17.537Z,32.58
2019-05-26T05:09:49.494Z,32.95
2019-05-26T05:12:21.989Z,23.62
2019-05-26T05:14:53.808Z,17.50
2019-05-26T05:17:25.767Z,14.70
2019-05-26T05:19:57.939Z,14.20
2019-05-26T05:22:29.912Z,14.23
2019-05-26T05:25:01.852Z,13.98
2019-05-26T05:27:33.810Z,14.18
2019-05-26T05:30:07.459Z,15.13
2019-05-26T05:32:39.361Z,16.57
2019-05-26T05:35:11.263Z,16.40
2019-05-26T05:37:43.136Z,15.68
2019-05-26T05:40:15.087Z,10.15
2019-05-26T05:42:47.094Z,9.65
2019-05-26T05:45:18.899Z,9.03
2019-05-26T05:47:50.637Z,9.30
2019-05-26T05:50:22.408Z,6.72
2019-05-26T05:52:54.190Z,6.97
2019-05-26T05:55:25.990Z,6.75
2019-05-26T05:57:57.679Z,7.17
2019-05-26T06:00:29.628Z,6.70
2019-05-26T06:03:01.517Z,11.97
2019-05-26T06:05:33.451Z,8.33
2019-05-26T06:08:05.346Z,6.92
2019-05-26T06:10:37.330Z,16.73
2019-05-26T06:13:10.455Z,7.92
2019-05-26T06:15:42.426Z,9.50
2019-05-26T06:18:14.241Z,9.45
2019-05-26T06:20:46.127Z,8.00
2019-05-26T06:23:17.946Z,8.55
2019-05-26T06:25:49.668Z,7.17
2019-05-26T06:28:21.378Z,6.80
2019-05-26T06:30:53.205Z,7.53
2019-05-26T06:33:24.969Z,7.35
2019-05-26T06:35:56.814Z,7.53
2019-05-26T06:38:28.510Z,6.30
2019-05-26T06:41:00.303Z,7.65
2019-05-26T06:43:32.074Z,6.67
2019-05-26T06:46:03.883Z,6.70
2019-05-26T06:48:35.627Z,6.67
2019-05-26T06:51:07.502Z,6.15
2019-05-26T06:53:39.535Z,6.72
2019-05-26T06:56:11.374Z,7.70
2019-05-26T06:58:43.218Z,7.22
2019-05-26T07:01:14.923Z,7.35
2019-05-26T07:03:46.617Z,7.17
2019-05-26T07:08:50.569Z,5.90
2019-05-26T07:11:22.378Z,7.25
2019-05-26T07:13:54.236Z,6.20
2019-05-26T07:16:37.649Z,7.35
2019-05-26T07:18:59.706Z,6.95
2019-05-26T07:21:32.678Z,8.60
2019-05-26T07:24:04.493Z,6.85
2019-05-26T07:26:36.359Z,5.87
2019-05-26T07:29:08.067Z,7.53
2019-05-26T07:31:39.926Z,5.70
2019-05-26T07:34:11.664Z,4.87
2019-05-26T07:36:43.468Z,4.90
2019-05-26T07:39:15.277Z,5.00
2019-05-26T07:41:47.005Z,4.83
2019-05-26T07:44:18.699Z,3.90
2019-05-26T07:46:50.511Z,4.17
2019-05-26T07:49:22.389Z,4.37
2019-05-26T07:51:54.211Z,3.98
2019-05-26T07:54:26.256Z,3.90
2019-05-26T07:56:58.013Z,4.83
2019-05-26T07:59:29.875Z,4.40
2019-05-26T08:02:01.671Z,4.33
2019-05-26T08:04:33.434Z,5.10
2019-05-26T08:07:05.712Z,5.25
2019-05-26T08:09:37.506Z,4.10
2019-05-26T08:12:24.574Z,3.83
2019-05-26T08:14:42.891Z,5.20
2019-05-26T08:17:14.688Z,4.58
2019-05-26T08:19:46.505Z,5.22
2019-05-26T08:22:18.254Z,3.50
2019-05-26T08:24:50.146Z,3.60
2019-05-26T08:27:21.874Z,3.67
2019-05-26T08:29:55.390Z,3.42
2019-05-26T08:32:27.102Z,3.37
2019-05-26T08:34:58.913Z,2.90
2019-05-26T08:37:30.875Z,2.90
2019-05-26T08:40:20.407Z,6.05
2019-05-26T08:42:52.388Z,3.37
2019-05-26T08:45:24.214Z,3.87
2019-05-26T08:47:55.987Z,4.00
2019-05-26T08:50:27.810Z,3.65
2019-05-26T08:52:59.652Z,4.42
2019-05-26T08:55:31.416Z,4.15
2019-05-26T08:58:03.217Z,3.65
2019-05-26T09:00:34.875Z,4.00
2019-05-26T09:03:06.819Z,3.47
2019-05-26T09:05:38.567Z,3.80
2019-05-26T09:08:10.434Z,3.58
2019-05-26T09:10:42.102Z,3.62
2019-05-26T09:13:14.045Z,3.80
2019-05-26T09:15:46.060Z,3.67
2019-05-26T09:18:17.910Z,3.40
2019-05-26T09:20:49.673Z,4.00
2019-05-26T09:23:21.762Z,3.75
2019-05-26T09:25:53.531Z,3.85
2019-05-26T09:28:25.340Z,6.05
2019-05-26T09:30:57.182Z,3.80
2019-05-26T09:33:30.068Z,7.95
2019-05-26T09:36:01.750Z,7.25
2019-05-26T09:38:33.595Z,7.47
2019-05-26T09:41:05.442Z,7.17
2019-05-26T09:43:37.245Z,7.80
2019-05-26T09:46:09.162Z,10.50
2019-05-26T09:48:41.335Z,10.23
2019-05-26T09:51:13.331Z,8.00
2019-05-26T09:53:45.076Z,8.65
2019-05-26T09:56:16.945Z,8.08
2019-05-26T09:58:48.867Z,7.70
2019-05-26T10:01:20.687Z,7.50
2019-05-26T10:03:52.534Z,7.12
2019-05-26T10:06:24.244Z,7.03
2019-05-26T10:08:56.012Z,8.50
2019-05-26T10:11:27.855Z,11.33
2019-05-26T10:13:59.927Z,11.57
2019-05-26T10:16:32.267Z,8.85
2019-05-26T10:19:04.715Z,6.08
2019-05-26T10:21:36.473Z,5.22
2019-05-26T10:24:08.500Z,5.47
2019-05-26T10:26:41.159Z,6.12
2019-05-26T10:29:12.929Z,5.37
2019-05-26T10:31:44.592Z,5.40
2019-05-26T10:34:16.553Z,4.83
2019-05-26T10:36:48.287Z,4.97
2019-05-26T10:39:20.172Z,4.25
2019-05-26T10:41:52.016Z,5.67
2019-05-26T10:44:23.973Z,5.67
2019-05-26T10:46:55.716Z,5.62
2019-05-26T10:49:27.412Z,4.25
2019-05-26T10:51:59.285Z,3.90
2019-05-26T10:54:31.194Z,3.77
2019-05-26T10:57:03.075Z,4.67
2019-05-26T10:59:34.811Z,4.25
2019-05-26T11:02:08.188Z,4.40
2019-05-26T11:04:39.997Z,3.83
2019-05-26T11:07:11.850Z,3.67
2019-05-26T11:09:43.604Z,3.92
2019-05-26T11:12:15.559Z,3.22
2019-05-26T11:14:47.624Z,3.12
2019-05-26T11:17:19.556Z,3.55
2019-05-26T11:19:51.436Z,2.95
2019-05-26T11:22:23.265Z,4.00
2019-05-26T11:24:56.134Z,5.05
2019-05-26T11:27:28.987Z,4.80
2019-05-26T11:30:00.831Z,3.80
2019-05-26T11:32:32.594Z,3.25
2019-05-26T11:35:05.322Z,3.10
2019-05-26T11:37:37.078Z,2.98
2019-05-26T11:40:08.908Z,3.05
2019-05-26T11:42:40.614Z,3.00
2019-05-26T11:45:12.561Z,4.20
2019-05-26T11:47:45.430Z,4.17
2019-05-26T11:50:17.295Z,3.58
2019-05-26T11:52:48.957Z,3.72
2019-05-26T11:55:20.873Z,4.28
2019-05-26T11:57:52.619Z,3.75
2019-05-26T12:00:24.494Z,6.25
2019-05-26T12:03:00.498Z,5.50
2019-05-26T12:05:31.637Z,4.58
2019-05-26T12:08:03.535Z,4.53
2019-05-26T12:10:35.838Z,9.48
2019-05-26T12:13:07.589Z,13.60
2019-05-26T12:15:39.677Z,11.60
2019-05-26T12:18:11.660Z,8.33
2019-05-26T12:20:43.730Z,4.65
2019-05-26T12:23:15.411Z,5.25
2019-05-26T12:25:48.748Z,4.22
2019-05-26T12:28:20.641Z,3.25
2019-05-26T12:30:52.425Z,3.60
2019-05-26T12:33:24.804Z,3.10
2019-05-26T12:35:56.977Z,3.70
2019-05-26T12:38:29.944Z,3.72
2019-05-26T12:41:01.823Z,4.00
2019-05-26T12:43:33.695Z,4.12
2019-05-26T12:46:05.695Z,4.20
2019-05-26T12:48:37.458Z,3.60
2019-05-26T12:51:09.321Z,3.77
2019-05-26T12:53:40.982Z,4.42
2019-05-26T12:56:13.010Z,4.55
2019-05-26T12:58:44.858Z,4.85
2019-05-26T13:01:16.782Z,5.35
2019-05-26T13:03:48.526Z,6.05
2019-05-26T13:06:20.316Z,9.43
2019-05-26T13:08:52.158Z,10.98
2019-05-26T13:11:24.232Z,10.43
2019-05-26T13:13:56.267Z,7.90
2019-05-26T13:16:28.135Z,5.78
2019-05-26T13:18:59.821Z,5.50
2019-05-26T13:21:31.533Z,8.35
2019-05-26T13:24:04.811Z,13.35
2019-05-26T13:26:38.308Z,11.08
2019-05-26T13:29:11.390Z,9.28
2019-05-26T13:31:43.248Z,7.05
2019-05-26T13:34:15.662Z,5.92
2019-05-26T13:36:47.470Z,5.37
2019-05-26T13:39:19.228Z,4.75
2019-05-26T13:41:50.946Z,4.53
2019-05-26T13:44:22.607Z,4.12
2019-05-26T13:46:54.420Z,4.22
2019-05-26T13:49:26.197Z,4.15
2019-05-26T13:51:58.077Z,4.10
2019-05-26T13:54:32.174Z,4.62
2019-05-26T13:57:04.075Z,4.33
2019-05-26T13:59:36.013Z,5.10
2019-05-26T14:02:08.010Z,4.95
2019-05-26T14:04:39.773Z,4.83
2019-05-26T14:07:11.638Z,5.90
2019-05-26T14:09:43.381Z,7.62
2019-05-26T14:12:15.392Z,6.92
2019-05-26T14:14:47.223Z,5.92
2019-05-26T14:17:19.200Z,7.53
2019-05-26T14:19:51.054Z,6.50
2019-05-26T14:22:22.792Z,7.67
2019-05-26T14:24:54.650Z,6.40
2019-05-26T14:27:26.433Z,6.62
2019-05-26T14:30:00.004Z,7.00
2019-05-26T14:32:32.033Z,7.22
2019-05-26T14:35:05.169Z,6.80
2019-05-26T14:37:37.051Z,6.03
2019-05-26T14:40:10.265Z,6.72
2019-05-26T14:42:42.202Z,5.33
2019-05-26T14:45:14.052Z,6.92
2019-05-26T14:47:45.918Z,6.95
2019-05-26T14:50:17.952Z,7.03
2019-05-26T14:52:49.881Z,7.97
2019-05-26T14:55:21.993Z,13.32
2019-05-26T14:57:53.904Z,17.42
2019-05-26T15:00:26.025Z,20.37
2019-05-26T15:02:58.116Z,18.60
2019-05-26T15:05:30.232Z,21.77
2019-05-26T15:08:02.374Z,23.02
2019-05-26T15:10:34.382Z,23.73
2019-05-26T15:13:06.489Z,16.60
2019-05-26T15:15:38.451Z,15.03
2019-05-26T15:18:10.449Z,14.45
2019-05-26T15:20:42.766Z,13.43
2019-05-26T15:23:14.741Z,15.18
2019-05-26T15:25:46.811Z,13.28
2019-05-26T15:28:18.708Z,12.10
2019-05-26T15:30:50.681Z,11.90
2019-05-26T15:33:22.758Z,11.38
2019-05-26T15:35:55.650Z,10.35
2019-05-26T15:38:41.997Z,9.43
2019-05-26T15:41:01.466Z,9.70
2019-05-26T15:43:33.418Z,8.30
2019-05-26T15:46:05.436Z,8.25
2019-05-26T15:48:38.532Z,8.68
2019-05-26T15:51:10.457Z,11.83
2019-05-26T15:53:42.301Z,17.02
2019-05-26T15:56:14.311Z,14.18
2019-05-26T15:58:46.300Z,13.22
2019-05-26T16:01:18.428Z,10.10
2019-05-26T16:03:50.351Z,8.85
2019-05-26T16:06:23.203Z,8.38
2019-05-26T16:08:55.035Z,7.10
2019-05-26T16:11:26.786Z,6.47
2019-05-26T16:13:59.753Z,6.95
2019-05-26T16:16:40.595Z,6.95
2019-05-26T16:19:04.997Z,7.03
2019-05-26T16:21:36.897Z,7.00
2019-05-26T16:24:09.855Z,9.25
2019-05-26T16:26:41.925Z,9.98
2019-05-26T16:29:14.920Z,14.58
2019-05-26T16:31:47.050Z,16.37
2019-05-26T16:34:18.981Z,17.52
2019-05-26T16:36:50.956Z,13.60
2019-05-26T16:39:36.082Z,13.00
2019-05-26T16:41:57.079Z,11.10
2019-05-26T16:44:29.186Z,11.03
2019-05-26T16:47:01.097Z,9.80
2019-05-26T16:49:34.233Z,8.55
2019-05-26T16:52:06.681Z,8.35
2019-05-26T16:54:38.501Z,7.65
2019-05-26T16:57:10.371Z,7.62
2019-05-26T16:59:42.571Z,7.90
2019-05-26T17:02:14.596Z,7.58
2019-05-26T17:04:46.461Z,7.92
2019-05-26T17:07:18.492Z,8.48
2019-05-26T17:09:50.584Z,9.30
2019-05-26T17:12:22.669Z,9.98
2019-05-26T17:14:54.743Z,9.30
2019-05-26T17:17:26.633Z,10.23
2019-05-26T17:19:58.755Z,10.23
2019-05-26T17:22:30.740Z,13.18
2019-05-26T17:25:02.813Z,13.35
2019-05-26T17:27:34.800Z,13.28
2019-05-26T17:30:06.967Z,11.83
2019-05-26T17:32:38.791Z,13.50
2019-05-26T17:35:11.820Z,13.10
2019-05-26T17:37:43.719Z,13.78
2019-05-26T17:40:15.829Z,14.00
2019-05-26T17:42:47.893Z,14.03
2019-05-26T17:45:20.013Z,14.38
2019-05-26T17:47:51.929Z,12.90
2019-05-26T17:50:24.679Z,12.93
2019-05-26T17:52:56.658Z,13.43
2019-05-26T17:55:28.648Z,12.75
2019-05-26T17:58:00.563Z,12.75
2019-05-26T18:00:32.602Z,12.30
2019-05-26T18:03:04.686Z,13.98
2019-05-26T18:05:36.686Z,13.53
2019-05-26T18:08:08.844Z,14.83
2019-05-26T18:10:41.240Z,16.45
2019-05-26T18:13:13.236Z,16.07
2019-05-26T18:15:45.365Z,16.85
2019-05-26T18:18:17.256Z,17.52
2019-05-26T18:20:49.351Z,17.65
2019-05-26T18:23:21.356Z,16.17
2019-05-26T18:25:53.263Z,14.70
2019-05-26T18:28:25.507Z,13.32
2019-05-26T18:30:57.552Z,12.07
2019-05-26T18:33:29.585Z,10.45
2019-05-26T18:36:01.572Z,10.40
2019-05-26T18:38:33.527Z,9.23
2019-05-26T18:41:05.506Z,8.73
2019-05-26T18:43:38.206Z,8.70
2019-05-26T18:46:10.117Z,9.48
2019-05-26T18:48:41.921Z,10.00
2019-05-26T18:51:13.966Z,10.85
2019-05-26T18:53:46.036Z,10.58
2019-05-26T18:56:17.892Z,11.90
2019-05-26T18:58:49.677Z,12.25
2019-05-26T19:01:21.612Z,14.25
2019-05-26T19:03:53.471Z,15.40
2019-05-26T19:06:25.578Z,19.20
2019-05-26T19:08:57.718Z,20.30
2019-05-26T19:11:29.681Z,22.27
2019-05-26T19:14:01.467Z,26.15
2019-05-26T19:16:33.392Z,26.40
2019-05-26T19:19:05.409Z,29.63
2019-05-26T19:21:37.382Z,30.82
2019-05-26T19:24:09.364Z,30.43
2019-05-26T19:26:41.442Z,25.85
2019-05-26T19:29:13.438Z,29.23
2019-05-26T19:31:45.666Z,29.48
2019-05-26T19:34:17.638Z,26.10
2019-05-26T19:36:49.686Z,24.60
2019-05-26T19:39:21.636Z,22.37
2019-05-26T19:41:53.727Z,18.50
2019-05-26T19:44:25.680Z,18.23
2019-05-26T19:46:57.839Z,19.35
2019-05-26T19:49:29.914Z,16.70
2019-05-26T19:52:02.004Z,15.93
2019-05-26T19:54:33.943Z,15.38
2019-05-26T19:57:05.951Z,14.23
2019-05-26T19:59:37.871Z,11.93
2019-05-26T20:02:18.337Z,13.72
2019-05-26T20:04:43.863Z,12.95
2019-05-26T20:07:16.926Z,12.70
2019-05-26T20:09:49.025Z,13.40
2019-05-26T20:12:21.110Z,12.98
2019-05-26T20:14:53.024Z,12.78
2019-05-26T20:17:25.152Z,12.13
2019-05-26T20:19:57.115Z,12.05
2019-05-26T20:22:29.413Z,12.60
2019-05-26T20:25:01.472Z,12.55
2019-05-26T20:27:33.580Z,12.78
2019-05-26T20:30:06.523Z,13.60
2019-05-26T20:32:38.358Z,13.35
2019-05-26T20:35:10.302Z,11.50
2019-05-26T20:37:42.208Z,12.47
2019-05-26T20:40:14.189Z,12.13
2019-05-26T20:42:46.259Z,12.03
2019-05-26T20:45:18.205Z,11.88
2019-05-26T20:47:50.204Z,11.03
2019-05-26T20:50:29.013Z,10.10
2019-05-26T20:52:55.825Z,9.75
2019-05-26T20:55:27.746Z,9.05
2019-05-26T20:57:59.640Z,10.35
2019-05-26T21:00:31.708Z,9.40
2019-05-26T21:03:03.733Z,10.20
2019-05-26T21:05:35.710Z,9.45
2019-05-26T21:08:07.520Z,9.43
2019-05-26T21:10:39.630Z,8.90
2019-05-26T21:13:11.592Z,9.53
2019-05-26T21:15:43.557Z,9.83
2019-05-26T21:18:15.653Z,9.80
2019-05-26T21:20:47.542Z,8.85
2019-05-26T21:23:22.619Z,10.30
2019-05-26T21:25:53.370Z,10.28
2019-05-26T21:28:25.395Z,10.53
2019-05-26T21:30:57.443Z,11.22
2019-05-26T21:33:29.441Z,10.60
2019-05-26T21:36:01.317Z,9.30
2019-05-26T21:38:33.220Z,10.05
2019-05-26T21:41:05.122Z,9.78
2019-05-26T21:43:38.154Z,9.78
2019-05-26T21:46:10.000Z,10.15
2019-05-26T21:48:41.885Z,10.78
2019-05-26T21:51:14.028Z,11.35
2019-05-26T21:53:46.073Z,11.18
2019-05-26T21:56:18.147Z,12.47
2019-05-26T21:58:50.220Z,12.85
2019-05-26T22:01:22.278Z,15.18
2019-05-26T22:03:54.440Z,17.23
2019-05-26T22:06:26.439Z,17.65
2019-05-26T22:08:58.443Z,17.77
2019-05-26T22:11:31.414Z,18.48
2019-05-26T22:14:03.427Z,18.95
2019-05-26T22:16:35.349Z,19.70
2019-05-26T22:19:07.430Z,19.65
2019-05-26T22:21:39.354Z,20.40
2019-05-26T22:24:11.318Z,20.25
2019-05-26T22:26:43.360Z,21.75
2019-05-26T22:29:15.361Z,23.50
2019-05-26T22:31:47.412Z,21.37
2019-05-26T22:34:19.465Z,19.80
2019-05-26T22:36:51.464Z,20.60
2019-05-26T22:39:23.317Z,19.77
2019-05-26T22:41:55.150Z,18.80
2019-05-26T22:44:27.069Z,20.85
2019-05-26T22:46:59.157Z,21.90
2019-05-26T22:49:31.170Z,23.77
2019-05-26T22:52:03.219Z,23.85
2019-05-26T22:54:36.217Z,25.65
2019-05-26T22:57:08.332Z,27.40
2019-05-26T22:59:40.353Z,25.57
2019-05-26T23:02:12.319Z,24.47
2019-05-26T23:04:44.462Z,22.82
2019-05-26T23:07:16.554Z,22.22
2019-05-26T23:09:48.868Z,20.10
2019-05-26T23:12:20.898Z,18.37
2019-05-26T23:14:53.075Z,19.52
2019-05-26T23:17:26.162Z,17.17
2019-05-26T23:19:58.121Z,16.73
2019-05-26T23:22:30.354Z,14.30
2019-05-26T23:25:02.356Z,13.98
2019-05-26T23:27:34.388Z,16.37
2019-05-26T23:30:09.149Z,15.75
2019-05-26T23:32:41.220Z,14.85
2019-05-26T23:35:13.275Z,13.95
2019-05-26T23:37:45.414Z,13.30
2019-05-26T23:40:17.378Z,13.78
2019-05-26T23:42:49.373Z,13.45
2019-05-26T23:45:21.474Z,13.62
2019-05-26T23:47:53.412Z,14.98
2019-05-26T23:50:25.423Z,16.10
2019-05-26T23:52:57.394Z,16.93
2019-05-26T23:55:29.415Z,15.88
2019-05-26T23:58:01.387Z,14.60
